Time;durP1;ratioP1;P1;durP2;ratioP2;P2;SDS_P1;SDS_P2;PMS_P1;PMS_P2;Temp;Humidity;BMP_temperature;BMP_pressure;BME280_temperature;BME280_humidity;BME280_pressure;Samples;Min_cycle;Max_cycle;Signal;HPM_P1;HPM_P2
2023/09/28 00:01:13;;;;;;;6.53;3.63;;;15.80;99.90;;;;;;5052804;28;20827;-71
2023/09/28 00:03:39;;;;;;;7.93;3.23;;;15.70;99.90;;;;;;5034909;28;20562;-71
2023/09/28 00:06:04;;;;;;;5.63;3.67;;;15.60;99.90;;;;;;5034626;28;20567;-71
2023/09/28 00:08:32;;;;;;;4.00;3.33;;;15.60;99.90;;;;;;5052697;28;20551;-71
2023/09/28 00:10:58;;;;;;;5.87;3.33;;;15.60;99.90;;;;;;5052481;28;20277;-70
2023/09/28 00:13:23;;;;;;;3.60;2.80;;;15.70;99.90;;;;;;5052522;28;20503;-70
2023/09/28 00:15:49;;;;;;;6.43;4.03;;;15.60;99.90;;;;;;5052417;28;20529;-71
2023/09/28 00:18:14;;;;;;;5.07;3.00;;;15.60;99.90;;;;;;5051142;28;20222;-71
2023/09/28 00:20:40;;;;;;;6.50;2.90;;;15.80;99.90;;;;;;5052351;28;20188;-71
2023/09/28 00:23:05;;;;;;;3.43;2.83;;;15.80;99.90;;;;;;5051035;28;20208;-71
2023/09/28 00:25:31;;;;;;;4.63;3.20;;;15.80;99.90;;;;;;5050704;28;20232;-71
2023/09/28 00:27:57;;;;;;;4.60;3.37;;;15.70;99.90;;;;;;5052118;28;20183;-71
2023/09/28 00:30:26;;;;;;;4.70;3.40;;;15.80;99.90;;;;;;5052209;28;20204;-71
2023/09/28 00:32:56;;;;;;;4.40;3.30;;;15.80;99.90;;;;;;5052153;28;20429;-71
2023/09/28 00:35:22;;;;;;;4.30;3.00;;;15.70;99.90;;;;;;5052082;28;20961;-71
2023/09/28 00:37:48;;;;;;;4.57;3.23;;;15.50;99.90;;;;;;5052041;28;20521;-71
2023/09/28 00:42:49;;;;;;;4.77;3.00;;;15.20;99.90;;;;;;5052236;28;20441;-71
2023/09/28 00:45:15;;;;;;;7.93;3.60;;;15.00;99.90;;;;;;5051760;28;20471;-71
2023/09/28 00:47:41;;;;;;;4.37;3.50;;;15.00;99.90;;;;;;5052094;28;20434;-71
2023/09/28 00:50:10;;;;;;;4.80;3.37;;;14.90;99.90;;;;;;5051830;28;20416;-71
2023/09/28 00:52:38;;;;;;;6.13;2.90;;;14.80;99.90;;;;;;5051850;28;20172;-71
2023/09/28 00:55:05;;;;;;;4.20;3.20;;;14.70;99.90;;;;;;5051631;28;20512;-71
2023/09/28 00:57:33;;;;;;;4.43;2.90;;;14.60;99.90;;;;;;5051704;28;20900;-71
2023/09/28 01:00:00;;;;;;;8.13;3.50;;;14.60;99.90;;;;;;5051634;28;20419;-71
2023/09/28 01:02:26;;;;;;;5.67;3.60;;;14.60;99.90;;;;;;5033853;28;20430;-70
2023/09/28 01:04:52;;;;;;;3.97;2.70;;;14.40;99.90;;;;;;5051411;28;20998;-71
2023/09/28 01:07:28;;;;;;;4.27;2.90;;;14.30;99.90;;;;;;5051558;28;20263;-71
2023/09/28 01:09:54;;;;;;;9.33;3.53;;;14.20;99.90;;;;;;5051498;28;20176;-71
2023/09/28 01:12:20;;;;;;;4.80;3.30;;;14.10;99.90;;;;;;5051446;28;20449;-71
2023/09/28 01:14:48;;;;;;;5.60;3.47;;;14.10;99.90;;;;;;5050159;28;20445;-70
2023/09/28 01:17:16;;;;;;;6.90;3.60;;;14.10;99.90;;;;;;5051506;28;20588;-71
2023/09/28 01:19:42;;;;;;;5.10;3.00;;;14.00;99.90;;;;;;5050164;28;21009;-71
2023/09/28 01:22:13;;;;;;;4.97;3.43;;;14.00;99.90;;;;;;5051279;28;20418;-71
2023/09/28 01:24:39;;;;;;;5.67;3.27;;;14.00;99.90;;;;;;5049795;28;20459;-71
2023/09/28 01:27:06;;;;;;;4.37;3.10;;;14.00;99.90;;;;;;5051317;28;20485;-71
2023/09/28 01:29:32;;;;;;;6.40;3.30;;;14.00;99.90;;;;;;5051266;28;20182;-71
2023/09/28 01:31:57;;;;;;;4.80;3.27;;;14.00;99.90;;;;;;5051519;28;20434;-71
2023/09/28 01:34:23;;;;;;;4.43;3.43;;;14.00;99.90;;;;;;5051183;28;20834;-71
2023/09/28 01:36:48;;;;;;;6.13;3.53;;;14.00;99.90;;;;;;5051190;28;20185;-71
2023/09/28 01:39:15;;;;;;;5.80;3.87;;;14.00;99.90;;;;;;5051199;28;20184;-71
2023/09/28 01:41:42;;;;;;;7.20;3.63;;;14.10;99.90;;;;;;5051099;28;20184;-71
2023/09/28 01:44:08;;;;;;;6.03;3.33;;;14.00;99.90;;;;;;5051001;28;20418;-70
2023/09/28 01:46:34;;;;;;;4.43;2.97;;;14.00;99.90;;;;;;5050954;28;20473;-71
2023/09/28 01:48:59;;;;;;;5.43;3.10;;;13.90;99.90;;;;;;5049707;28;20623;-71
2023/09/28 01:51:25;;;;;;;4.50;3.23;;;13.80;99.90;;;;;;5052840;28;20516;-71
2023/09/28 01:53:50;;;;;;;5.30;3.30;;;13.90;99.90;;;;;;5053793;28;20578;-71
2023/09/28 01:56:18;;;;;;;3.93;3.20;;;13.80;99.90;;;;;;5055122;28;20317;-71
2023/09/28 01:58:44;;;;;;;5.30;3.27;;;13.80;99.90;;;;;;5055006;28;20176;-71
2023/09/28 02:01:19;;;;;;;6.40;3.57;;;13.90;99.90;;;;;;5053448;28;20441;-70
2023/09/28 02:03:45;;;;;;;5.07;3.40;;;13.90;99.90;;;;;;5054849;28;20179;-71
2023/09/28 02:06:11;;;;;;;5.00;3.10;;;13.90;99.90;;;;;;5053408;28;20466;-71
2023/09/28 02:08:36;;;;;;;8.90;3.77;;;13.80;99.90;;;;;;5054706;28;20424;-71
2023/09/28 02:11:03;;;;;;;5.10;3.40;;;13.80;99.90;;;;;;5054702;28;20191;-71
2023/09/28 02:13:28;;;;;;;6.53;3.00;;;13.80;99.90;;;;;;5053449;28;20194;-71
2023/09/28 02:15:54;;;;;;;5.00;3.60;;;13.80;99.90;;;;;;5054606;28;20526;-71
2023/09/28 02:18:20;;;;;;;4.13;3.30;;;13.80;99.90;;;;;;5053308;28;20178;-71
2023/09/28 02:20:45;;;;;;;3.03;2.27;;;13.80;99.90;;;;;;5054384;28;20659;-71
2023/09/28 02:23:11;;;;;;;5.30;3.00;;;13.90;99.90;;;;;;5054500;28;20208;-71
2023/09/28 02:25:37;;;;;;;5.80;3.30;;;13.90;99.90;;;;;;5052928;28;20209;-71
2023/09/28 02:28:03;;;;;;;5.90;3.20;;;13.80;99.90;;;;;;5036569;28;20229;-71
2023/09/28 02:30:29;;;;;;;3.77;2.63;;;13.80;99.90;;;;;;5054379;28;20414;-71
2023/09/28 02:32:55;;;;;;;6.43;3.53;;;13.90;99.90;;;;;;5054311;28;20524;-71
2023/09/28 02:35:21;;;;;;;5.20;3.07;;;13.80;99.90;;;;;;5054102;28;20220;-71
2023/09/28 02:37:48;;;;;;;3.83;2.90;;;13.80;99.90;;;;;;5054226;28;20497;-71
2023/09/28 02:40:15;;;;;;;4.90;2.97;;;13.70;99.90;;;;;;5054112;28;20429;-71
2023/09/28 02:42:44;;;;;;;6.40;2.70;;;13.70;99.90;;;;;;5054196;28;20504;-71
2023/09/28 02:45:13;;;;;;;6.80;2.93;;;13.70;99.90;;;;;;5052596;28;20520;-71
2023/09/28 02:47:44;;;;;;;4.90;2.90;;;13.70;99.90;;;;;;5052821;28;20924;-71
2023/09/28 02:50:11;;;;;;;10.37;3.50;;;13.60;99.90;;;;;;5053971;28;20468;-71
2023/09/28 02:52:41;;;;;;;4.90;2.93;;;13.60;99.90;;;;;;5053833;28;20445;-71
2023/09/28 02:55:08;;;;;;;4.27;2.70;;;13.50;99.90;;;;;;5053745;28;20436;-71
2023/09/28 02:57:37;;;;;;;4.53;2.80;;;13.50;99.90;;;;;;5053685;28;20853;-71
2023/09/28 03:03:00;;;;;;;6.10;2.93;;;14.10;99.90;;;;;;5057486;28;20945;-72
2023/09/28 03:05:27;;;;;;;5.13;2.73;;;14.60;99.90;;;;;;5053564;28;20908;-71
2023/09/28 03:07:53;;;;;;;3.70;2.30;;;14.70;99.90;;;;;;5053706;28;20421;-71
2023/09/28 03:10:19;;;;;;;3.67;2.80;;;14.80;99.90;;;;;;5035732;28;20904;-71
2023/09/28 03:12:46;;;;;;;6.13;3.47;;;14.70;99.90;;;;;;5053502;28;20729;-71
2023/09/28 03:15:13;;;;;;;3.87;2.93;;;14.50;99.90;;;;;;5053342;28;20436;-71
2023/09/28 03:17:40;;;;;;;3.70;2.70;;;14.30;99.90;;;;;;5053374;28;20426;-71
2023/09/28 03:20:11;;;;;;;3.50;2.80;;;14.20;99.90;;;;;;5053271;28;20419;-71
2023/09/28 03:22:37;;;;;;;3.63;2.80;;;14.10;99.90;;;;;;5052090;28;20466;-71
2023/09/28 03:25:06;;;;;;;6.80;3.17;;;14.10;99.90;;;;;;5053228;28;21027;-71
2023/09/28 03:27:32;;;;;;;6.73;3.53;;;14.10;99.90;;;;;;5052023;28;20172;-71
2023/09/28 03:29:57;;;;;;;7.50;3.33;;;14.10;99.90;;;;;;5051837;28;20468;-71
2023/09/28 03:32:23;;;;;;;4.93;3.33;;;14.10;99.90;;;;;;5051940;28;20730;-71
2023/09/28 03:34:48;;;;;;;4.87;3.23;;;14.00;99.90;;;;;;5053114;28;20205;-71
2023/09/28 03:37:18;;;;;;;5.10;3.37;;;14.00;99.90;;;;;;5053094;28;20538;-71
2023/09/28 03:39:44;;;;;;;9.00;3.60;;;13.90;99.90;;;;;;5051749;28;20208;-71
2023/09/28 03:42:10;;;;;;;5.00;3.50;;;13.90;99.90;;;;;;5052922;28;20970;-71
2023/09/28 03:44:35;;;;;;;4.20;3.07;;;13.90;99.90;;;;;;5051606;28;20522;-71
2023/09/28 03:47:01;;;;;;;5.60;3.50;;;13.80;99.90;;;;;;5051621;28;20192;-71
2023/09/28 03:49:26;;;;;;;6.10;4.13;;;13.80;99.90;;;;;;5052921;28;20184;-71
2023/09/28 03:51:52;;;;;;;5.27;3.07;;;13.80;99.90;;;;;;5051473;28;20176;-71
2023/09/28 03:54:18;;;;;;;8.50;3.40;;;13.80;99.90;;;;;;5052638;28;20204;-71
2023/09/28 03:56:43;;;;;;;6.50;3.50;;;13.70;99.90;;;;;;5051289;28;20227;-71
2023/09/28 03:59:09;;;;;;;5.40;3.47;;;13.70;99.90;;;;;;5034701;28;20207;-71
2023/09/28 04:01:35;;;;;;;5.00;3.10;;;13.60;99.90;;;;;;5051414;28;20238;-71
2023/09/28 04:04:00;;;;;;;5.00;3.27;;;13.70;99.90;;;;;;5051312;28;20434;-71
2023/09/28 04:06:26;;;;;;;4.70;3.50;;;13.60;99.90;;;;;;5052443;28;20211;-71
2023/09/28 04:08:51;;;;;;;6.70;4.00;;;13.60;99.90;;;;;;5051232;28;20231;-71
2023/09/28 04:11:17;;;;;;;6.53;3.07;;;13.60;99.90;;;;;;5052474;28;20681;-71
2023/09/28 04:13:43;;;;;;;6.83;3.30;;;13.60;99.90;;;;;;5051870;28;20229;-71
2023/09/28 04:16:09;;;;;;;5.50;3.50;;;13.60;99.90;;;;;;5052177;28;20285;-71
2023/09/28 04:18:35;;;;;;;5.87;3.70;;;13.50;99.90;;;;;;5052243;28;20419;-71
2023/09/28 04:21:00;;;;;;;4.80;3.60;;;13.40;99.90;;;;;;5051004;28;20179;-71
2023/09/28 04:23:26;;;;;;;4.90;3.33;;;13.40;99.90;;;;;;5050893;28;20179;-71
2023/09/28 04:25:51;;;;;;;7.37;2.97;;;13.40;99.90;;;;;;5050772;28;20264;-71
2023/09/28 04:28:17;;;;;;;7.37;3.37;;;13.40;99.90;;;;;;5050782;28;20194;-71
2023/09/28 04:30:43;;;;;;;8.80;4.07;;;13.50;99.90;;;;;;5052107;28;20176;-71
2023/09/28 04:33:09;;;;;;;4.70;2.93;;;13.50;99.90;;;;;;5052019;28;20645;-71
2023/09/28 04:35:35;;;;;;;4.53;3.20;;;13.50;99.90;;;;;;5050595;28;20465;-71
2023/09/28 04:38:02;;;;;;;5.10;3.27;;;13.40;99.90;;;;;;5034139;28;20184;-71
2023/09/28 04:40:28;;;;;;;5.60;3.87;;;13.30;99.90;;;;;;5051828;28;20507;-71
2023/09/28 04:42:54;;;;;;;5.40;3.40;;;13.30;99.90;;;;;;5051764;28;20916;-71
2023/09/28 04:45:20;;;;;;;4.47;3.00;;;13.20;99.90;;;;;;5051592;28;20290;-71
2023/09/28 04:47:47;;;;;;;5.10;3.37;;;13.20;99.90;;;;;;5051577;28;20426;-71
2023/09/28 04:50:12;;;;;;;4.70;3.40;;;13.30;99.90;;;;;;5051758;28;20556;-71
2023/09/28 04:52:38;;;;;;;6.40;3.60;;;13.30;99.90;;;;;;5051562;28;20472;-71
2023/09/28 04:55:06;;;;;;;5.43;3.90;;;13.30;99.90;;;;;;5051549;28;20207;-71
2023/09/28 04:57:32;;;;;;;5.00;3.97;;;13.20;99.90;;;;;;5051376;28;20453;-71
2023/09/28 04:59:57;;;;;;;9.90;3.73;;;13.20;99.90;;;;;;5051608;28;20419;-71
2023/09/28 05:02:23;;;;;;;6.47;3.20;;;13.20;99.90;;;;;;5051456;28;20411;-71
2023/09/28 05:04:49;;;;;;;4.90;3.60;;;13.20;99.90;;;;;;5050026;28;20220;-71
2023/09/28 05:07:14;;;;;;;4.30;3.00;;;13.20;99.90;;;;;;5050182;28;20214;-71
2023/09/28 05:09:41;;;;;;;6.13;3.53;;;13.20;99.90;;;;;;5050110;28;20192;-71
2023/09/28 05:12:08;;;;;;;7.37;3.47;;;13.10;99.90;;;;;;5051486;28;20547;-71
2023/09/28 05:14:33;;;;;;;7.13;4.30;;;12.90;99.90;;;;;;5049876;28;20568;-71
2023/09/28 05:16:59;;;;;;;4.90;3.67;;;12.80;99.90;;;;;;5049945;28;20505;-71
2023/09/28 05:19:25;;;;;;;7.77;3.97;;;12.80;99.90;;;;;;5049822;28;20673;-71
2023/09/28 05:21:51;;;;;;;5.90;3.90;;;12.90;99.90;;;;;;5051206;28;20422;-71
2023/09/28 05:24:17;;;;;;;6.97;3.13;;;13.00;99.90;;;;;;5049912;28;20465;-71
2023/09/28 05:26:42;;;;;;;9.83;3.80;;;13.20;99.90;;;;;;5050406;28;20251;-72
2023/09/28 05:29:08;;;;;;;6.63;3.97;;;13.30;99.90;;;;;;5051142;28;20665;-71
2023/09/28 05:31:34;;;;;;;6.70;3.73;;;13.30;99.90;;;;;;5049835;28;20180;-71
2023/09/28 05:33:59;;;;;;;6.67;3.60;;;13.30;99.90;;;;;;5051148;28;20245;-71
2023/09/28 05:36:25;;;;;;;5.70;3.40;;;13.40;99.90;;;;;;5051060;28;20738;-70
2023/09/28 05:38:51;;;;;;;11.10;3.73;;;13.40;99.90;;;;;;5049796;28;20563;-71
2023/09/28 05:41:16;;;;;;;7.30;3.73;;;13.40;99.90;;;;;;5051061;28;20173;-71
2023/09/28 05:43:42;;;;;;;4.87;3.53;;;13.40;99.90;;;;;;5033131;28;20175;-71
2023/09/28 05:46:09;;;;;;;5.03;3.50;;;13.40;99.90;;;;;;5050830;28;20223;-71
2023/09/28 05:48:35;;;;;;;4.13;3.73;;;13.50;99.90;;;;;;5049896;28;20729;-71
2023/09/28 05:51:01;;;;;;;6.17;3.80;;;13.50;99.90;;;;;;5051125;28;20974;-70
2023/09/28 05:53:27;;;;;;;5.77;3.90;;;13.40;99.90;;;;;;5049940;28;20442;-71
2023/09/28 05:55:53;;;;;;;8.27;4.70;;;13.60;99.90;;;;;;5050943;28;20211;-71
2023/09/28 05:58:19;;;;;;;8.30;3.80;;;13.70;99.90;;;;;;5051091;28;20423;-71
2023/09/28 06:00:45;;;;;;;4.20;3.37;;;13.70;99.90;;;;;;5049632;28;20192;-71
2023/09/28 06:03:11;;;;;;;4.83;3.50;;;13.80;99.90;;;;;;5051100;28;20423;-71
2023/09/28 06:05:36;;;;;;;3.80;3.13;;;13.80;99.90;;;;;;5049614;28;20538;-71
2023/09/28 06:08:02;;;;;;;6.00;4.17;;;13.80;99.90;;;;;;5033290;28;20183;-71
2023/09/28 06:10:28;;;;;;;6.43;3.90;;;13.80;99.90;;;;;;5050974;28;20721;-71
2023/09/28 06:12:54;;;;;;;6.30;4.30;;;13.70;99.90;;;;;;5050932;28;20215;-71
2023/09/28 06:15:19;;;;;;;6.33;3.63;;;13.80;99.90;;;;;;5050849;28;20298;-70
2023/09/28 06:17:45;;;;;;;6.20;3.70;;;13.80;99.90;;;;;;5050917;28;20227;-70
2023/09/28 06:20:11;;;;;;;5.10;3.60;;;13.90;99.90;;;;;;5049622;28;20184;-70
2023/09/28 06:22:37;;;;;;;4.73;3.37;;;13.90;99.90;;;;;;5050848;28;20433;-71
2023/09/28 06:25:03;;;;;;;6.47;3.60;;;13.90;99.90;;;;;;5050695;28;20470;-70
2023/09/28 06:27:29;;;;;;;3.87;3.10;;;13.90;99.90;;;;;;5050706;28;20560;-70
2023/09/28 06:29:55;;;;;;;3.93;2.80;;;13.90;99.90;;;;;;5049461;28;20418;-70
2023/09/28 06:32:22;;;;;;;5.93;3.63;;;14.00;99.90;;;;;;5049499;28;20480;-71
2023/09/28 06:34:47;;;;;;;3.33;2.70;;;14.10;99.90;;;;;;5050731;28;20983;-70
2023/09/28 06:37:13;;;;;;;4.57;3.27;;;14.20;99.90;;;;;;5052037;28;20414;-70
2023/09/28 06:39:39;;;;;;;6.40;3.63;;;14.20;99.90;;;;;;5053131;28;20187;-70
2023/09/28 06:42:05;;;;;;;8.80;3.83;;;14.20;99.90;;;;;;5053068;28;20615;-70
2023/09/28 06:44:30;;;;;;;6.90;3.80;;;14.20;99.90;;;;;;5054131;28;20434;-70
2023/09/28 06:46:57;;;;;;;7.40;3.93;;;14.20;99.90;;;;;;5052774;28;20247;-70
2023/09/28 06:49:23;;;;;;;5.57;3.47;;;14.30;99.90;;;;;;5054417;28;20207;-69
2023/09/28 06:51:49;;;;;;;8.63;4.57;;;14.40;99.90;;;;;;5054100;28;20900;-70
2023/09/28 06:54:16;;;;;;;7.47;3.50;;;14.50;99.90;;;;;;5052751;28;20441;-70
2023/09/28 06:56:42;;;;;;;5.50;3.43;;;14.60;99.90;;;;;;5053912;28;20442;-70
2023/09/28 06:59:07;;;;;;;6.40;3.73;;;14.70;99.90;;;;;;5052653;28;20479;-71
2023/09/28 07:01:33;;;;;;;7.83;3.27;;;14.70;99.90;;;;;;5053981;28;20185;-71
2023/09/28 07:03:59;;;;;;;12.43;3.93;;;14.80;99.90;;;;;;5054116;28;20184;-71
2023/09/28 07:06:24;;;;;;;5.67;3.53;;;14.90;99.90;;;;;;5053772;28;20478;-71
2023/09/28 07:08:52;;;;;;;5.30;3.30;;;15.10;99.90;;;;;;5053939;28;20180;-71
2023/09/28 07:11:19;;;;;;;5.57;3.57;;;15.30;99.90;;;;;;5053798;28;20177;-71
2023/09/28 07:13:45;;;;;;;10.23;3.93;;;15.50;99.90;;;;;;5053732;28;20403;-71
2023/09/28 07:16:11;;;;;;;8.83;4.47;;;15.60;99.90;;;;;;5053945;28;20477;-71
2023/09/28 07:18:37;;;;;;;7.37;3.70;;;15.70;99.90;;;;;;5053723;28;20910;-71
2023/09/28 07:21:03;;;;;;;5.77;3.50;;;15.80;99.90;;;;;;5053588;28;20195;-71
2023/09/28 07:23:28;;;;;;;12.03;3.80;;;15.90;99.90;;;;;;5052103;28;20198;-71
2023/09/28 07:25:55;;;;;;;7.57;4.70;;;15.90;99.90;;;;;;5053270;28;20225;-70
2023/09/28 07:28:21;;;;;;;15.20;3.73;;;16.10;99.90;;;;;;5053392;28;20340;-71
2023/09/28 07:30:47;;;;;;;7.87;4.20;;;16.10;99.90;;;;;;5053358;28;20975;-71
2023/09/28 07:33:15;;;;;;;7.40;4.10;;;16.20;99.90;;;;;;5053622;28;20506;-71
2023/09/28 07:35:43;;;;;;;7.23;3.50;;;16.30;99.90;;;;;;5052132;28;20209;-71
2023/09/28 07:38:09;;;;;;;7.60;3.70;;;16.50;99.90;;;;;;5052131;28;20432;-71
2023/09/28 07:40:34;;;;;;;8.07;3.83;;;16.70;99.90;;;;;;5053356;28;20591;-71
2023/09/28 07:43:00;;;;;;;5.23;3.70;;;16.90;99.90;;;;;;5053288;28;20883;-71
2023/09/28 07:45:26;;;;;;;4.30;3.50;;;17.10;99.90;;;;;;5053394;28;20272;-71
2023/09/28 07:47:51;;;;;;;5.10;3.20;;;17.20;99.90;;;;;;5052802;28;20559;-72
2023/09/28 07:50:17;;;;;;;6.37;3.60;;;17.40;99.90;;;;;;5052516;28;20214;-71
2023/09/28 07:52:43;;;;;;;4.37;3.23;;;17.60;99.90;;;;;;5053099;28;20183;-71
2023/09/28 07:55:10;;;;;;;7.77;3.67;;;17.80;99.90;;;;;;5052845;28;20697;-71
2023/09/28 07:57:36;;;;;;;4.90;3.10;;;18.00;99.90;;;;;;5052721;28;20979;-71
2023/09/28 08:00:04;;;;;;;10.30;3.87;;;18.20;99.90;;;;;;5052939;28;20427;-72
2023/09/28 08:02:30;;;;;;;5.50;3.30;;;18.40;99.90;;;;;;5051431;28;20426;-71
2023/09/28 08:04:56;;;;;;;8.60;3.97;;;18.60;99.90;;;;;;5052561;28;20484;-71
2023/09/28 08:07:23;;;;;;;6.97;3.70;;;18.80;99.90;;;;;;5052636;28;20917;-71
2023/09/28 08:09:48;;;;;;;5.57;3.70;;;19.00;99.90;;;;;;5053142;28;20577;-70
2023/09/28 08:12:14;;;;;;;4.77;3.40;;;19.20;99.90;;;;;;5052599;28;20421;-72
2023/09/28 08:14:39;;;;;;;6.70;3.33;;;19.50;99.90;;;;;;5051276;28;20215;-72
2023/09/28 08:17:06;;;;;;;5.37;3.50;;;19.70;99.90;;;;;;5052527;28;20575;-72
2023/09/28 08:19:32;;;;;;;4.30;3.10;;;19.70;99.90;;;;;;5052462;28;20185;-72
2023/09/28 08:21:58;;;;;;;4.30;3.30;;;19.80;99.90;;;;;;5051096;28;20422;-72
2023/09/28 08:24:23;;;;;;;4.67;3.37;;;19.80;99.90;;;;;;5052317;28;20210;-72
2023/09/28 08:26:49;;;;;;;8.60;3.70;;;19.70;99.90;;;;;;5052162;28;20678;-72
2023/09/28 08:29:15;;;;;;;10.03;3.57;;;19.60;99.90;;;;;;5051110;28;20529;-72
2023/09/28 08:31:40;;;;;;;7.80;3.40;;;19.70;99.90;;;;;;5052279;28;20719;-72
2023/09/28 08:34:08;;;;;;;8.77;3.67;;;19.80;99.90;;;;;;5050812;28;20634;-72
2023/09/28 08:36:33;;;;;;;4.60;3.47;;;20.00;99.90;;;;;;5051036;28;20293;-72
2023/09/28 08:38:59;;;;;;;6.93;3.40;;;20.10;99.90;;;;;;5052100;28;20502;-72
2023/09/28 08:41:46;;;;;;;4.40;3.53;;;20.10;99.90;;;;;;5050729;28;20612;-72
2023/09/28 08:44:13;;;;;;;8.00;3.80;;;20.30;99.90;;;;;;5052056;28;20245;-72
2023/09/28 08:46:39;;;;;;;5.10;3.73;;;20.40;99.90;;;;;;5051867;28;20471;-72
2023/09/28 08:49:07;;;;;;;4.00;3.23;;;20.50;99.90;;;;;;5051887;28;20421;-72
2023/09/28 08:51:37;;;;;;;8.40;3.07;;;20.60;99.90;;;;;;5051960;28;20434;-72
2023/09/28 08:54:05;;;;;;;6.03;3.57;;;20.70;99.90;;;;;;5050559;28;20548;-72
2023/09/28 08:56:39;;;;;;;6.53;3.27;;;20.90;99.90;;;;;;5051703;28;20958;-72
2023/09/28 08:59:06;;;;;;;8.47;3.87;;;21.10;99.90;;;;;;5050487;28;20422;-72
2023/09/28 09:01:32;;;;;;;6.40;3.67;;;21.30;99.90;;;;;;5051602;28;20425;-72
2023/09/28 09:03:59;;;;;;;9.47;3.50;;;21.60;99.90;;;;;;5050209;28;20426;-72
2023/09/28 09:06:28;;;;;;;7.13;4.00;;;21.90;99.90;;;;;;5051463;28;21012;-72
2023/09/28 09:08:57;;;;;;;4.00;3.10;;;22.20;99.90;;;;;;5051688;28;20504;-72
2023/09/28 09:11:25;;;;;;;7.03;3.80;;;22.40;99.90;;;;;;5051755;28;20463;-72
2023/09/28 09:13:53;;;;;;;5.83;3.40;;;22.70;99.90;;;;;;5051443;28;20424;-72
2023/09/28 09:16:21;;;;;;;7.80;3.47;;;23.30;99.90;;;;;;5051417;28;20435;-72
2023/09/28 09:18:48;;;;;;;5.60;3.07;;;23.90;99.60;;;;;;5050263;28;20478;-72
2023/09/28 09:21:14;;;;;;;2.47;2.27;;;24.50;97.70;;;;;;5050193;28;20468;-72
2023/09/28 09:23:39;;;;;;;7.60;3.40;;;25.10;95.60;;;;;;5050386;28;20454;-72
2023/09/28 09:26:17;;;;;;;3.93;2.93;;;25.60;92.50;;;;;;5049976;28;20716;-72
2023/09/28 09:28:46;;;;;;;3.50;3.10;;;26.10;89.90;;;;;;5051500;28;20256;-72
2023/09/28 09:31:13;;;;;;;2.57;2.20;;;26.70;88.10;;;;;;5049990;28;20427;-72
2023/09/28 09:33:39;;;;;;;4.90;2.80;;;27.10;89.80;;;;;;5051306;28;20500;-72
2023/09/28 09:36:05;;;;;;;3.30;2.47;;;27.60;87.10;;;;;;5033432;28;20531;-72
2023/09/28 09:38:31;;;;;;;3.73;2.80;;;27.80;88.60;;;;;;5033606;28;20244;-71
2023/09/28 09:41:04;;;;;;;3.43;2.87;;;28.20;90.40;;;;;;5051252;28;20429;-71
2023/09/28 09:43:39;;;;;;;2.73;2.40;;;28.40;99.90;;;;;;5051300;28;20207;-71
2023/09/28 09:46:06;;;;;;;3.30;2.73;;;28.70;97.10;;;;;;5051170;28;20469;-73
2023/09/28 09:48:42;;;;;;;5.87;2.53;;;29.00;87.50;;;;;;5050022;28;20450;-73
2023/09/28 09:51:13;;;;;;;3.67;2.10;;;29.10;95.00;;;;;;5051218;28;20413;-73
2023/09/28 09:53:41;;;;;;;3.37;2.23;;;29.40;99.90;;;;;;5049984;28;20430;-73
2023/09/28 09:56:07;;;;;;;2.10;1.90;;;29.90;98.20;;;;;;5050826;28;20471;-72
2023/09/28 09:58:40;;;;;;;2.33;2.07;;;29.90;87.50;;;;;;5051050;28;20424;-73
2023/09/28 10:01:13;;;;;;;3.43;2.30;;;29.90;91.30;;;;;;5050985;28;20422;-72
2023/09/28 10:03:50;;;;;;;2.07;1.87;;;30.30;99.90;;;;;;5051077;28;20988;-73
2023/09/28 10:06:18;;;;;;;6.80;2.03;;;30.60;92.20;;;;;;5049623;28;20951;-73
2023/09/28 10:08:45;;;;;;;2.07;1.87;;;31.10;72.50;;;;;;5050927;28;20908;-72
2023/09/28 10:11:12;;;;;;;2.10;1.90;;;31.00;87.90;;;;;;5050977;28;20419;-72
2023/09/28 10:13:38;;;;;;;3.00;2.40;;;31.00;99.90;;;;;;5054629;28;20430;-72
2023/09/28 10:16:05;;;;;;;4.73;2.43;;;31.10;93.30;;;;;;5036948;28;20450;-72
2023/09/28 10:18:35;;;;;;;2.77;1.97;;;31.20;78.40;;;;;;5054851;28;20418;-73
2023/09/28 10:21:00;;;;;;;2.43;2.23;;;31.50;55.50;;;;;;5053486;28;20461;-73
2023/09/28 10:23:27;;;;;;;2.70;2.00;;;31.80;94.70;;;;;;5053480;28;20465;-73
2023/09/28 10:25:56;;;;;;;5.50;2.90;;;31.60;99.90;;;;;;5054590;28;20208;-73
2023/09/28 10:28:21;;;;;;;2.73;2.30;;;31.90;68.20;;;;;;5054562;28;20789;-73
2023/09/28 10:30:47;;;;;;;8.53;2.20;;;31.80;71.80;;;;;;5054603;28;20509;-73
2023/09/28 10:33:12;;;;;;;4.10;2.67;;;31.60;66.40;;;;;;5054597;28;20211;-72
2023/09/28 10:35:40;;;;;;;1.90;1.80;;;31.90;59.10;;;;;;5036469;28;20583;-73
2023/09/28 10:38:17;;;;;;;5.37;2.17;;;32.00;51.00;;;;;;5054446;28;20192;-73
2023/09/28 10:40:47;;;;;;;1.80;1.60;;;32.10;59.00;;;;;;5054378;28;20421;-73
2023/09/28 10:43:47;;;;;;;2.07;1.90;;;32.00;87.10;;;;;;5054363;28;20422;-73
2023/09/28 10:46:12;;;;;;;2.40;2.10;;;31.90;87.10;;;;;;5053925;28;20477;-73
2023/09/28 10:48:45;;;;;;;2.00;1.87;;;32.20;89.60;;;;;;5052917;28;20795;-73
2023/09/28 10:51:20;;;;;;;4.37;2.30;;;32.10;62.10;;;;;;5054272;28;20267;-73
2023/09/28 10:53:46;;;;;;;2.47;2.27;;;32.10;65.40;;;;;;5054041;28;20422;-73
2023/09/28 10:56:12;;;;;;;2.63;2.43;;;32.00;99.90;;;;;;5053823;28;20483;-73
2023/09/28 10:58:39;;;;;;;2.47;2.27;;;32.20;72.50;;;;;;5052788;28;20191;-72
2023/09/28 11:01:06;;;;;;;3.33;2.53;;;32.40;99.90;;;;;;5054039;28;20471;-72
2023/09/28 11:03:32;;;;;;;2.70;2.50;;;32.20;99.90;;;;;;5053990;28;20419;-71
2023/09/28 11:05:59;;;;;;;4.93;2.77;;;32.30;70.40;;;;;;5053771;28;20462;-73
2023/09/28 11:08:25;;;;;;;3.27;2.77;;;32.30;76.30;;;;;;5053876;28;20422;-72
2023/09/28 11:10:55;;;;;;;2.50;2.30;;;32.00;61.50;;;;;;5035728;28;20430;-72
2023/09/28 11:13:21;;;;;;;4.20;2.93;;;32.00;54.70;;;;;;5052549;28;20615;-73
2023/09/28 11:15:47;;;;;;;3.40;2.30;;;31.80;67.80;;;;;;5053685;28;20438;-73
2023/09/28 11:18:13;;;;;;;4.23;2.43;;;31.70;83.20;;;;;;5053590;28;20967;-72
2023/09/28 11:20:38;;;;;;;4.40;2.20;;;31.50;56.30;;;;;;5053710;28;20503;-72
2023/09/28 11:23:04;;;;;;;2.50;2.20;;;32.00;60.90;;;;;;5052632;28;20187;-73
2023/09/28 11:25:30;;;;;;;3.20;2.43;;;31.70;55.30;;;;;;5053130;28;20242;-74
2023/09/28 11:27:56;;;;;;;4.00;2.20;;;31.40;77.10;;;;;;5052254;28;20543;-73
2023/09/28 11:30:22;;;;;;;2.40;2.20;;;31.30;57.50;;;;;;5053521;28;20518;-72
2023/09/28 11:32:52;;;;;;;2.40;2.17;;;31.10;54.60;;;;;;5053448;28;20562;-73
2023/09/28 11:35:26;;;;;;;5.13;2.57;;;30.90;52.80;;;;;;5035520;28;20454;-72
2023/09/28 11:37:57;;;;;;;5.90;2.90;;;30.20;61.60;;;;;;5035272;28;20855;-72
2023/09/28 11:40:24;;;;;;;6.83;2.60;;;30.00;74.70;;;;;;5053291;28;20407;-72
2023/09/28 11:42:52;;;;;;;2.57;2.37;;;30.00;59.80;;;;;;5051859;28;20440;-72
2023/09/28 11:45:18;;;;;;;3.67;2.90;;;30.10;62.20;;;;;;5052973;28;20535;-72
2023/09/28 11:47:48;;;;;;;4.03;2.43;;;29.70;61.80;;;;;;5052038;28;20423;-73
2023/09/28 11:50:14;;;;;;;2.13;1.90;;;29.60;59.50;;;;;;5053150;28;20438;-71
2023/09/28 11:52:41;;;;;;;4.30;2.53;;;29.90;62.90;;;;;;5053016;28;20473;-73
2023/09/28 11:55:07;;;;;;;2.80;2.40;;;30.10;58.80;;;;;;5051533;28;20797;-73
2023/09/28 11:57:36;;;;;;;8.13;2.50;;;30.10;58.20;;;;;;5052811;28;20447;-73
2023/09/28 12:00:03;;;;;;;2.80;2.60;;;29.90;54.20;;;;;;5052833;28;20925;-73
2023/09/28 12:02:28;;;;;;;4.20;2.30;;;29.90;52.80;;;;;;5052828;28;20794;-73
2023/09/28 12:04:57;;;;;;;4.10;2.27;;;29.80;57.60;;;;;;5052665;28;20442;-73
2023/09/28 12:07:23;;;;;;;3.93;2.43;;;29.60;71.00;;;;;;5052692;28;20257;-74
2023/09/28 12:09:48;;;;;;;5.03;2.83;;;29.60;79.10;;;;;;5051493;28;20522;-73
2023/09/28 12:12:14;;;;;;;2.30;2.10;;;29.60;62.40;;;;;;5051336;28;20533;-73
2023/09/28 12:14:40;;;;;;;2.33;2.10;;;29.80;62.40;;;;;;5052538;28;20235;-73
2023/09/28 12:17:06;;;;;;;4.30;2.37;;;29.70;72.80;;;;;;5052617;28;20188;-73
2023/09/28 12:19:31;;;;;;;3.13;2.07;;;29.70;59.60;;;;;;5052477;28;20441;-73
2023/09/28 12:21:58;;;;;;;2.13;2.00;;;29.70;62.90;;;;;;5051083;28;20268;-73
2023/09/28 12:24:26;;;;;;;3.10;2.43;;;29.70;57.60;;;;;;5050927;28;20713;-73
2023/09/28 12:26:52;;;;;;;3.53;1.90;;;29.70;57.40;;;;;;5051020;28;20466;-73
2023/09/28 12:29:18;;;;;;;4.30;2.20;;;29.80;60.60;;;;;;5052252;28;20951;-72
2023/09/28 12:31:44;;;;;;;2.70;2.10;;;29.90;55.20;;;;;;5051183;28;20433;-72
2023/09/28 12:34:13;;;;;;;3.60;2.57;;;29.60;63.00;;;;;;5051962;28;20665;-72
2023/09/28 12:36:39;;;;;;;4.77;2.30;;;29.40;83.50;;;;;;5034415;28;20857;-72
2023/09/28 12:39:10;;;;;;;5.73;2.20;;;29.40;99.90;;;;;;5050917;28;20430;-72
2023/09/28 12:41:36;;;;;;;2.67;1.90;;;29.40;99.90;;;;;;5050965;28;20430;-72
2023/09/28 12:44:01;;;;;;;3.70;2.27;;;29.40;99.90;;;;;;5051981;28;20419;-72
2023/09/28 12:46:27;;;;;;;6.30;2.33;;;29.40;93.40;;;;;;5050649;28;20987;-72
2023/09/28 12:48:55;;;;;;;3.20;2.00;;;29.30;99.90;;;;;;5034051;28;20180;-73